createdAt,value
2023-03-29T00:02:02.522Z,100482.16
2023-03-29T00:04:53.358Z,100496.38
2023-03-29T00:07:42.477Z,100497.38
2023-03-29T00:10:32.207Z,100498.88
2023-03-29T00:13:20.838Z,100486.81
2023-03-29T00:16:10.024Z,100481.31
2023-03-29T00:18:59.878Z,100485.59
2023-03-29T00:21:48.301Z,100486.63
2023-03-29T00:24:36.830Z,100472.97
2023-03-29T00:27:25.369Z,100483.81
2023-03-29T00:30:14.961Z,100477.47
2023-03-29T00:33:03.845Z,100482.47
2023-03-29T00:35:54.413Z,100487.22
2023-03-29T00:38:43.078Z,100474.19
2023-03-29T00:41:31.587Z,100467.75
2023-03-29T00:44:57.437Z,100464.50
2023-03-29T00:47:47.812Z,100464.94
2023-03-29T00:50:39.732Z,100461.78
2023-03-29T00:53:33.431Z,100457.56
2023-03-29T00:56:24.957Z,100461.81
2023-03-29T00:59:16.169Z,100452.94
2023-03-29T01:02:05.775Z,100405.69
2023-03-29T01:04:58.279Z,100444.69
2023-03-29T01:07:50.382Z,100437.97
2023-03-29T01:10:42.671Z,100435.69
2023-03-29T01:13:37.067Z,100414.84
2023-03-29T01:16:25.932Z,100414.13
2023-03-29T01:19:19.024Z,100421.25
2023-03-29T01:22:14.766Z,100388.38
2023-03-29T01:25:11.190Z,100409.25
2023-03-29T01:28:04.849Z,100400.91
2023-03-29T01:30:55.923Z,100396.56
2023-03-29T01:33:47.146Z,100387.06
2023-03-29T01:36:40.469Z,100382.47
2023-03-29T01:39:29.040Z,100370.63
2023-03-29T01:42:27.328Z,100381.91
2023-03-29T01:45:22.831Z,100373.63
2023-03-29T01:48:16.508Z,100374.63
2023-03-29T01:51:08.222Z,100363.78
2023-03-29T01:54:00.362Z,100362.28
2023-03-29T01:56:50.035Z,100372.31
2023-03-29T01:59:42.074Z,100313.03
2023-03-29T02:02:32.311Z,100356.19
2023-03-29T02:05:22.374Z,100350.00
2023-03-29T02:08:13.392Z,100333.00
2023-03-29T02:11:02.533Z,100346.53
2023-03-29T02:13:51.146Z,100347.06
2023-03-29T02:16:40.368Z,100326.69
2023-03-29T02:19:30.208Z,100331.91
2023-03-29T02:22:23.117Z,100312.38
2023-03-29T02:25:12.883Z,100326.50
2023-03-29T02:28:01.797Z,100326.69
2023-03-29T02:30:54.624Z,100319.00
2023-03-29T02:33:46.596Z,100313.75
2023-03-29T02:36:41.530Z,100288.53
2023-03-29T02:39:31.734Z,100308.22
2023-03-29T02:42:20.782Z,100305.06
2023-03-29T02:45:10.699Z,100311.13
2023-03-29T02:48:01.393Z,100306.97
2023-03-29T02:50:52.198Z,100308.03
2023-03-29T02:53:44.217Z,100321.78
2023-03-29T02:56:43.217Z,100310.69
2023-03-29T02:59:31.835Z,100329.88
2023-03-29T03:02:20.677Z,100323.75
2023-03-29T03:05:09.986Z,100318.97
2023-03-29T03:07:59.308Z,100319.03
2023-03-29T03:10:49.112Z,100319.91
2023-03-29T03:13:37.666Z,100316.94
2023-03-29T03:16:26.402Z,100319.09
2023-03-29T03:19:15.295Z,100315.81
2023-03-29T03:22:06.062Z,100317.50
2023-03-29T03:24:55.888Z,100315.00
2023-03-29T03:27:45.970Z,100323.50
2023-03-29T03:30:34.883Z,100313.19
2023-03-29T03:33:24.052Z,100305.88
2023-03-29T03:36:12.610Z,100308.53
2023-03-29T03:39:01.565Z,100317.19
2023-03-29T03:41:50.028Z,100319.03
2023-03-29T03:44:40.084Z,100310.56
2023-03-29T03:47:29.216Z,100311.72
2023-03-29T03:50:18.454Z,100293.78
2023-03-29T03:53:07.114Z,100311.06
2023-03-29T03:55:56.801Z,100307.91
2023-03-29T03:58:45.729Z,100311.91
2023-03-29T04:01:37.657Z,100315.84
2023-03-29T04:04:26.743Z,100322.69
2023-03-29T04:07:17.778Z,100322.53
2023-03-29T04:10:08.930Z,100313.69
2023-03-29T04:12:57.376Z,100281.28
2023-03-29T04:15:46.097Z,100315.19
2023-03-29T04:18:36.218Z,100326.00
2023-03-29T04:21:24.966Z,100313.88
2023-03-29T04:24:13.548Z,100321.34
2023-03-29T04:27:02.002Z,100319.84
2023-03-29T04:29:50.466Z,100331.16
2023-03-29T04:32:39.132Z,100332.34
2023-03-29T04:35:28.991Z,100329.31
2023-03-29T04:38:17.517Z,100329.16
2023-03-29T04:41:06.431Z,100323.53
2023-03-29T04:43:56.027Z,100323.53
2023-03-29T04:46:44.601Z,100321.88
2023-03-29T04:49:33.526Z,100322.69
2023-03-29T04:52:24.610Z,100322.84
2023-03-29T04:55:13.233Z,100328.50
2023-03-29T04:58:02.718Z,100347.31
2023-03-29T05:00:51.527Z,100347.31
2023-03-29T05:03:40.209Z,100342.97
2023-03-29T05:06:29.130Z,100349.47
2023-03-29T05:09:19.537Z,100347.97
2023-03-29T05:12:08.389Z,100350.78
2023-03-29T05:14:56.842Z,100354.44
2023-03-29T05:17:45.355Z,100353.09
2023-03-29T05:20:33.825Z,100348.47
2023-03-29T05:23:22.570Z,100354.59
2023-03-29T05:26:15.217Z,100347.63
2023-03-29T05:29:04.344Z,100349.94
2023-03-29T05:31:53.274Z,100356.13
2023-03-29T05:34:42.174Z,100357.63
2023-03-29T05:37:31.739Z,100345.34
2023-03-29T05:40:20.500Z,100325.81
2023-03-29T05:43:10.592Z,100348.31
2023-03-29T05:45:59.262Z,100340.44
2023-03-29T05:48:47.769Z,100348.78
2023-03-29T05:51:36.328Z,100345.78
2023-03-29T05:54:24.993Z,100343.78
2023-03-29T05:57:13.469Z,100345.09
2023-03-29T06:00:06.034Z,100348.75
2023-03-29T06:02:59.295Z,100346.09
2023-03-29T06:05:59.637Z,100349.59
2023-03-29T06:08:48.759Z,100347.38
2023-03-29T06:11:37.532Z,100338.25
2023-03-29T06:14:27.158Z,100362.69
2023-03-29T06:17:17.487Z,100352.81
2023-03-29T06:20:10.752Z,100303.81
2023-03-29T06:22:59.406Z,100354.28
2023-03-29T06:25:48.730Z,100351.72
2023-03-29T06:28:37.521Z,100359.47
2023-03-29T06:31:26.240Z,100356.53
2023-03-29T06:34:17.694Z,100343.84
2023-03-29T06:37:06.812Z,100355.94
2023-03-29T06:39:55.331Z,100351.47
2023-03-29T06:42:45.015Z,100336.09
2023-03-29T06:45:35.247Z,100354.38
2023-03-29T06:48:23.966Z,100364.97
2023-03-29T06:51:13.777Z,100355.81
2023-03-29T06:54:02.267Z,100358.25
2023-03-29T06:56:50.776Z,100360.22
2023-03-29T06:59:39.356Z,100369.50
2023-03-29T07:02:28.934Z,100365.16
2023-03-29T07:05:17.609Z,100382.75
2023-03-29T07:08:13.928Z,100384.59
2023-03-29T07:11:03.527Z,100381.44
2023-03-29T07:13:52.244Z,100388.03
2023-03-29T07:16:41.121Z,100388.78
2023-03-29T07:19:30.327Z,100377.75
2023-03-29T07:22:19.368Z,100381.00
2023-03-29T07:25:10.594Z,100392.47
2023-03-29T07:27:59.070Z,100390.06
2023-03-29T07:30:47.836Z,100400.56
2023-03-29T07:33:36.405Z,100377.53
2023-03-29T07:36:25.252Z,100398.38
2023-03-29T07:39:15.401Z,100404.94
2023-03-29T07:42:05.290Z,100398.25
2023-03-29T07:44:54.253Z,100393.66
2023-03-29T07:47:42.819Z,100391.66
2023-03-29T07:50:32.541Z,100394.53
2023-03-29T07:53:21.184Z,100398.31
2023-03-29T07:56:10.178Z,100387.97
2023-03-29T07:59:00.028Z,100397.09
2023-03-29T08:01:48.928Z,100401.88
2023-03-29T08:04:37.515Z,100399.22
2023-03-29T08:07:33.857Z,100390.91
2023-03-29T08:10:23.348Z,100386.19
2023-03-29T08:13:12.420Z,100333.03
2023-03-29T08:16:02.264Z,100395.16
2023-03-29T08:18:51.145Z,100389.84
2023-03-29T08:21:39.618Z,100390.50
2023-03-29T08:24:28.282Z,100389.19
2023-03-29T08:27:17.322Z,100386.38
2023-03-29T08:30:07.877Z,100376.97
2023-03-29T08:32:58.021Z,100383.06
2023-03-29T08:35:46.906Z,100363.38
2023-03-29T08:38:35.443Z,100348.50
2023-03-29T08:41:33.122Z,100375.66
2023-03-29T08:44:31.040Z,100368.50
2023-03-29T08:47:22.768Z,100371.50
2023-03-29T08:50:13.737Z,100355.53
2023-03-29T08:53:05.952Z,100371.78
2023-03-29T08:55:56.766Z,100370.13
2023-03-29T08:58:46.546Z,100365.75
2023-03-29T09:01:36.768Z,100365.41
2023-03-29T09:04:28.202Z,100360.06
2023-03-29T09:07:18.098Z,100360.50
2023-03-29T09:10:07.088Z,100335.06
2023-03-29T09:13:06.191Z,100358.47
2023-03-29T09:16:00.566Z,100352.78
2023-03-29T09:18:56.553Z,100360.63
2023-03-29T09:21:47.512Z,100362.97
2023-03-29T09:24:57.853Z,100361.59
2023-03-29T09:27:49.950Z,100362.63
2023-03-29T09:30:41.589Z,100366.09
2023-03-29T09:33:32.620Z,100359.88
2023-03-29T09:36:25.836Z,100326.13
2023-03-29T09:39:16.249Z,100356.88
2023-03-29T09:42:08.900Z,100327.22
2023-03-29T09:45:01.996Z,100355.66
2023-03-29T09:47:53.326Z,100336.72
2023-03-29T09:50:43.767Z,100362.44
2023-03-29T09:53:32.252Z,100359.47
2023-03-29T09:56:21.486Z,100343.09
2023-03-29T09:59:13.470Z,100359.13
2023-03-29T10:02:08.647Z,100354.31
2023-03-29T10:05:01.040Z,100365.94
2023-03-29T10:07:52.932Z,100357.22
2023-03-29T10:10:41.637Z,100361.31
2023-03-29T10:13:31.652Z,100348.66
2023-03-29T10:16:23.227Z,100345.88
2023-03-29T10:19:18.440Z,100349.19
2023-03-29T10:22:09.181Z,100345.00
2023-03-29T10:24:58.188Z,100335.78
2023-03-29T10:27:47.760Z,100335.91
2023-03-29T10:30:38.610Z,100319.19
2023-03-29T10:33:31.996Z,100326.94
2023-03-29T10:36:20.829Z,100293.66
2023-03-29T10:39:11.697Z,100314.44
2023-03-29T10:42:00.593Z,100305.03
2023-03-29T10:44:54.613Z,100313.25
2023-03-29T10:47:45.993Z,100299.34
2023-03-29T10:50:38.054Z,100263.25
2023-03-29T10:53:28.483Z,100300.47
2023-03-29T10:56:40.188Z,100293.63
2023-03-29T10:59:30.234Z,100290.56
2023-03-29T11:02:54.573Z,100304.34
2023-03-29T11:05:49.142Z,100291.06
2023-03-29T11:08:48.925Z,100280.16
2023-03-29T11:12:15.159Z,100282.09
2023-03-29T11:15:16.436Z,100272.84
2023-03-29T11:18:30.312Z,100271.44
2023-03-29T11:21:26.058Z,100268.06
2023-03-29T11:24:46.824Z,100277.00
2023-03-29T11:27:39.991Z,100274.28
2023-03-29T11:30:32.095Z,100284.44
2023-03-29T11:33:34.605Z,100279.66
2023-03-29T11:36:26.881Z,100277.13
2023-03-29T11:39:19.443Z,100268.75
2023-03-29T11:42:12.752Z,100263.22
2023-03-29T11:45:04.889Z,100283.00
2023-03-29T11:47:54.082Z,100280.19
2023-03-29T11:50:45.977Z,100221.13
2023-03-29T11:53:42.662Z,100271.16
2023-03-29T11:56:35.231Z,100271.50
2023-03-29T11:59:27.421Z,100263.28
2023-03-29T12:02:21.216Z,100267.97
2023-03-29T12:05:13.219Z,100256.72
2023-03-29T12:08:04.455Z,100220.69
2023-03-29T12:10:59.215Z,100259.84
2023-03-29T12:13:52.459Z,100239.84
2023-03-29T12:16:43.931Z,100265.63
2023-03-29T12:19:39.609Z,100232.97
2023-03-29T12:22:29.574Z,100245.59
2023-03-29T12:25:21.918Z,100252.00
2023-03-29T12:28:27.992Z,100253.44
2023-03-29T12:31:20.877Z,100260.97
2023-03-29T12:34:21.959Z,100263.63
2023-03-29T12:37:33.256Z,100266.81
2023-03-29T12:40:24.163Z,100261.94
2023-03-29T12:43:20.609Z,100260.31
2023-03-29T12:46:10.351Z,100267.84
2023-03-29T12:49:05.779Z,100265.63
2023-03-29T12:51:55.584Z,100255.53
2023-03-29T12:54:54.298Z,100261.94
2023-03-29T12:57:45.658Z,100230.94
2023-03-29T13:00:44.953Z,100257.41
2023-03-29T13:03:42.432Z,100252.03
2023-03-29T13:06:33.753Z,100256.78
2023-03-29T13:09:23.910Z,100200.66
2023-03-29T13:12:22.735Z,100256.97
2023-03-29T13:15:23.824Z,100247.84
2023-03-29T13:18:33.984Z,100251.59
2023-03-29T13:21:26.285Z,100265.72
2023-03-29T13:24:30.240Z,100265.97
2023-03-29T13:27:26.179Z,100232.56
2023-03-29T13:30:24.469Z,100265.84
2023-03-29T13:33:26.424Z,100255.97
2023-03-29T13:36:18.390Z,100249.38
2023-03-29T13:39:07.827Z,100243.75
2023-03-29T13:42:09.179Z,100257.03
2023-03-29T13:45:06.781Z,100246.44
2023-03-29T13:48:05.433Z,100233.41
2023-03-29T13:50:57.593Z,100233.41
2023-03-29T13:53:50.514Z,100234.44
2023-03-29T13:56:43.222Z,100227.03
2023-03-29T13:59:39.544Z,100215.50
2023-03-29T14:02:39.374Z,100223.84
2023-03-29T14:05:31.487Z,100222.81
2023-03-29T14:08:25.428Z,100217.03
2023-03-29T14:11:23.239Z,100207.91
2023-03-29T14:14:12.634Z,100202.25
2023-03-29T14:17:02.250Z,100175.66
2023-03-29T14:19:51.413Z,100156.03
2023-03-29T14:22:39.908Z,100180.81
2023-03-29T14:25:30.547Z,100185.53
2023-03-29T14:28:23.229Z,100179.06
2023-03-29T14:31:18.599Z,100170.25
2023-03-29T14:34:08.817Z,100170.13
2023-03-29T14:36:58.454Z,100171.44
2023-03-29T14:39:47.187Z,100170.03
2023-03-29T14:42:38.721Z,100180.22
2023-03-29T14:45:27.227Z,100158.03
2023-03-29T14:48:16.446Z,100163.38
2023-03-29T14:51:06.385Z,100160.53
2023-03-29T14:53:54.896Z,100152.78
2023-03-29T14:56:43.473Z,100140.34
2023-03-29T14:59:38.086Z,100131.16
2023-03-29T15:02:28.477Z,100131.81
2023-03-29T15:05:26.245Z,100130.66
2023-03-29T15:08:17.861Z,100123.22
2023-03-29T15:11:13.993Z,100109.56
2023-03-29T15:14:04.331Z,100103.69
2023-03-29T15:16:57.150Z,100099.00
2023-03-29T15:19:45.847Z,100108.19
2023-03-29T15:22:35.199Z,100092.53
2023-03-29T15:25:23.693Z,100084.19
2023-03-29T15:28:26.091Z,100086.41
2023-03-29T15:31:19.221Z,100081.25
2023-03-29T15:34:12.793Z,100093.94
2023-03-29T15:37:02.446Z,100095.00
2023-03-29T15:39:51.017Z,100091.81
2023-03-29T15:42:39.547Z,100082.75
2023-03-29T15:45:28.026Z,100085.16
2023-03-29T15:48:25.010Z,100080.81
2023-03-29T15:51:14.948Z,100044.66
2023-03-29T15:54:03.526Z,100062.66
2023-03-29T15:56:54.319Z,100066.50
2023-03-29T15:59:43.515Z,100076.69
2023-03-29T16:02:32.185Z,100070.38
2023-03-29T16:05:20.812Z,100069.78
2023-03-29T16:08:12.158Z,100063.63
2023-03-29T16:11:00.746Z,100060.22
2023-03-29T16:13:49.392Z,100064.22
2023-03-29T16:16:37.978Z,100061.38
2023-03-29T16:19:27.202Z,100060.66
2023-03-29T16:22:15.739Z,100054.81
2023-03-29T16:25:08.352Z,100045.19
2023-03-29T16:27:56.816Z,100041.06
2023-03-29T16:30:45.411Z,100029.59
2023-03-29T16:33:34.125Z,100022.81
2023-03-29T16:36:22.691Z,100017.31
2023-03-29T16:39:12.853Z,100023.09
2023-03-29T16:42:02.695Z,100019.84
2023-03-29T16:44:51.423Z,100026.28
2023-03-29T16:47:40.217Z,100011.84
2023-03-29T16:50:29.005Z,100016.66
2023-03-29T16:53:18.286Z,100009.75
2023-03-29T16:56:07.923Z,99993.94
2023-03-29T16:58:57.761Z,100007.56
2023-03-29T17:01:46.337Z,100007.78
2023-03-29T17:04:34.989Z,99998.03
2023-03-29T17:07:23.593Z,99993.22
2023-03-29T17:10:12.917Z,99990.75
2023-03-29T17:13:01.472Z,99990.31
2023-03-29T17:15:52.351Z,99983.88
2023-03-29T17:18:40.953Z,99988.78
2023-03-29T17:21:29.745Z,99990.09
2023-03-29T17:24:18.216Z,99987.03
2023-03-29T17:27:07.046Z,99981.53
2023-03-29T17:29:55.619Z,99984.63
2023-03-29T17:32:45.748Z,99984.63
2023-03-29T17:35:34.519Z,99984.59
2023-03-29T17:38:23.057Z,99976.50
2023-03-29T17:41:11.664Z,99968.03
2023-03-29T17:44:01.151Z,99967.34
2023-03-29T17:46:49.728Z,99969.38
2023-03-29T17:49:39.545Z,99982.16
2023-03-29T17:52:28.085Z,99972.06
2023-03-29T17:55:16.934Z,99990.97
2023-03-29T17:58:05.568Z,99958.00
2023-03-29T18:00:54.124Z,99976.66
2023-03-29T18:03:43.296Z,99978.06
2023-03-29T18:06:33.101Z,99981.09
2023-03-29T18:09:21.611Z,99973.34
2023-03-29T18:12:10.172Z,99964.06
2023-03-29T18:14:59.019Z,99960.66
2023-03-29T18:17:47.850Z,99950.94
2023-03-29T18:20:36.371Z,99959.03
2023-03-29T18:23:26.227Z,99959.47
2023-03-29T18:26:15.922Z,99965.94
2023-03-29T18:29:04.546Z,99966.66
2023-03-29T18:31:53.040Z,99958.66
2023-03-29T18:34:41.845Z,99972.81
2023-03-29T18:37:30.360Z,99972.38
2023-03-29T18:40:24.616Z,99977.66
2023-03-29T18:43:13.153Z,99968.44
2023-03-29T18:46:02.134Z,99964.78
2023-03-29T18:48:51.042Z,99974.84
2023-03-29T18:51:39.661Z,99974.03
2023-03-29T18:54:28.211Z,99969.91
2023-03-29T18:57:18.001Z,99966.63
2023-03-29T19:00:12.406Z,99965.31
2023-03-29T19:14:39.133Z,99972.72
2023-03-29T19:17:28.804Z,99963.53
2023-03-29T19:20:17.618Z,99963.97
2023-03-29T19:23:06.294Z,99958.81
2023-03-29T19:25:55.289Z,99950.03
2023-03-29T19:28:43.788Z,99953.41
2023-03-29T19:31:37.702Z,99947.81
2023-03-29T19:34:26.657Z,99936.06
2023-03-29T19:37:16.890Z,99939.81
2023-03-29T19:40:08.138Z,99929.13
2023-03-29T19:42:56.626Z,99908.34
2023-03-29T19:45:45.417Z,99918.53
2023-03-29T19:48:35.319Z,99912.75
2023-03-29T19:51:26.682Z,99895.13
2023-03-29T19:54:17.264Z,99902.38
2023-03-29T19:57:07.280Z,99899.91
2023-03-29T19:59:55.831Z,99876.31
2023-03-29T20:02:44.330Z,99903.28
2023-03-29T20:05:35.898Z,99896.94
2023-03-29T20:08:24.741Z,99899.25
2023-03-29T20:11:14.087Z,99890.22
2023-03-29T20:14:02.615Z,99890.88
2023-03-29T20:16:52.289Z,99895.53
2023-03-29T20:19:44.184Z,99871.38
2023-03-29T20:22:34.054Z,99853.53
2023-03-29T20:25:22.585Z,99866.09
2023-03-29T20:28:12.851Z,99868.91
2023-03-29T20:31:04.863Z,99833.16
2023-03-29T20:33:53.705Z,99862.34
2023-03-29T20:36:42.348Z,99854.09
2023-03-29T20:39:32.361Z,99849.31
2023-03-29T20:42:28.503Z,99845.28
2023-03-29T20:45:19.317Z,99836.19
2023-03-29T20:48:07.965Z,99827.19
2023-03-29T20:50:57.691Z,99836.28
2023-03-29T20:53:46.573Z,99832.94
2023-03-29T20:56:38.564Z,99834.94
2023-03-29T20:59:27.529Z,99828.75
2023-03-29T21:02:18.844Z,99820.91
2023-03-29T21:05:08.587Z,99809.03
2023-03-29T21:07:57.535Z,99810.66
2023-03-29T21:10:47.725Z,99801.75
2023-03-29T21:13:37.560Z,99801.19
2023-03-29T21:16:29.029Z,99801.41
2023-03-29T21:19:19.571Z,99791.97
2023-03-29T21:22:09.006Z,99783.69
2023-03-29T21:24:57.438Z,99779.03
2023-03-29T21:27:45.965Z,99775.00
2023-03-29T21:30:35.991Z,99776.72
2023-03-29T21:33:24.604Z,99724.28
2023-03-29T21:36:13.102Z,99776.34
2023-03-29T21:39:01.679Z,99767.38
2023-03-29T21:41:52.278Z,99766.97
2023-03-29T21:44:40.790Z,99749.56
2023-03-29T21:47:31.007Z,99753.06
2023-03-29T21:50:19.697Z,99760.25
2023-03-29T21:53:08.489Z,99753.31
2023-03-29T21:55:56.974Z,99756.66
2023-03-29T21:58:45.553Z,99759.78
2023-03-29T22:01:34.160Z,99754.34
2023-03-29T22:04:35.780Z,99745.22
2023-03-29T22:07:25.226Z,99758.13
2023-03-29T22:10:13.983Z,99684.41
2023-03-29T22:13:03.098Z,99754.31
2023-03-29T22:15:59.139Z,99753.06
2023-03-29T22:18:49.658Z,99755.59
2023-03-29T22:21:39.816Z,99748.78
2023-03-29T22:24:28.948Z,99761.66
2023-03-29T22:27:17.401Z,99763.91
2023-03-29T22:30:08.048Z,99759.38
2023-03-29T22:32:56.576Z,99759.81
2023-03-29T22:35:45.123Z,99763.88
2023-03-29T22:38:35.007Z,99762.19
2023-03-29T22:41:25.983Z,99756.16
2023-03-29T22:44:14.523Z,99746.09
2023-03-29T22:47:03.006Z,99737.47
2023-03-29T22:49:51.541Z,99753.25
2023-03-29T22:52:40.027Z,99756.84
2023-03-29T22:55:29.799Z,99754.25
2023-03-29T22:58:18.250Z,99762.09
2023-03-29T23:01:07.609Z,99773.25
2023-03-29T23:03:56.330Z,99777.59
2023-03-29T23:06:44.940Z,99785.22
2023-03-29T23:09:33.653Z,99778.19
2023-03-29T23:12:24.477Z,99763.50
2023-03-29T23:15:13.514Z,99758.31
2023-03-29T23:18:02.230Z,99761.34
2023-03-29T23:20:52.380Z,99762.81
2023-03-29T23:23:41.077Z,99754.22
2023-03-29T23:26:29.505Z,99752.16
2023-03-29T23:29:19.294Z,99753.50
2023-03-29T23:32:08.054Z,99755.44
2023-03-29T23:34:56.490Z,99751.78
2023-03-29T23:37:45.084Z,99749.94
2023-03-29T23:40:33.984Z,99754.03
2023-03-29T23:43:22.681Z,99742.19
2023-03-29T23:46:14.132Z,99744.63
2023-03-29T23:49:03.178Z,99730.13
2023-03-29T23:51:51.594Z,99725.00
2023-03-29T23:54:40.069Z,99726.06
2023-03-29T23:57:28.699Z,99724.41
